Time;durP1;ratioP1;P1;durP2;ratioP2;P2;SDS_P1;SDS_P2;PMS_P1;PMS_P2;Temp;Humidity;BMP_temperature;BMP_pressure;BME280_temperature;BME280_humidity;BME280_pressure;Samples;Min_cycle;Max_cycle;Signal;HPM_P1;HPM_P2
2022/10/03 00:02:23;;;;;;;0.35;0.35;;;;;;;11.73;100.00;100900.81;7394313;19;20031;-61
2022/10/03 00:05:00;;;;;;;16.30;0.88;;;;;;;11.77;100.00;100905.03;7391035;19;20023;-61
2022/10/03 00:07:44;;;;;;;0.68;0.68;;;;;;;11.84;100.00;100899.19;7393201;19;20019;-61
2022/10/03 00:10:29;;;;;;;2.80;0.55;;;;;;;11.85;100.00;100897.94;7390593;19;20035;-61
2022/10/03 00:13:01;;;;;;;0.50;0.50;;;;;;;11.70;100.00;100891.34;7389923;19;20015;-61
2022/10/03 00:15:53;;;;;;;0.20;0.20;;;;;;;12.10;100.00;100886.56;7389370;19;20427;-61
2022/10/03 00:18:47;;;;;;;5.60;0.75;;;;;;;12.22;100.00;100884.09;7390981;19;20032;-61
2022/10/03 00:21:31;;;;;;;3.30;0.70;;;;;;;12.39;100.00;100885.38;7389063;19;20043;-61
2022/10/03 00:24:25;;;;;;;1.00;0.63;;;;;;;12.25;100.00;100880.38;7390274;19;20021;-61
2022/10/03 00:26:58;;;;;;;1.23;0.57;;;;;;;12.33;100.00;100890.00;7393868;19;20030;-61
2022/10/03 00:29:50;;;;;;;4.22;0.82;;;;;;;12.68;100.00;100874.53;7394253;19;20006;-61
2022/10/03 00:32:35;;;;;;;0.50;0.40;;;;;;;11.56;100.00;100875.16;7392483;19;20014;-60
2022/10/03 00:35:11;;;;;;;0.30;0.30;;;;;;;12.51;100.00;100876.09;7390994;19;20021;-61
2022/10/03 00:38:08;;;;;;;0.28;0.28;;;;;;;11.12;100.00;100879.22;7394970;19;20097;-60
2022/10/03 00:41:12;;;;;;;0.80;0.80;;;;;;;10.42;100.00;100883.28;7389947;19;20026;-61
2022/10/03 00:43:49;;;;;;;2.55;0.60;;;;;;;11.26;100.00;100884.28;7391010;19;20680;-61
2022/10/03 00:46:18;;;;;;;0.82;0.65;;;;;;;10.88;100.00;100881.66;7392274;19;20015;-61
2022/10/03 00:49:30;;;;;;;0.73;0.65;;;;;;;11.77;100.00;100891.09;7390551;19;20017;-60
2022/10/03 00:52:08;;;;;;;0.60;0.40;;;;;;;12.70;100.00;100888.81;7389977;19;20011;-60
2022/10/03 00:54:53;;;;;;;0.30;0.30;;;;;;;11.78;100.00;100881.47;7389584;19;20014;-61
2022/10/03 00:57:49;;;;;;;0.68;0.68;;;;;;;11.55;100.00;100901.47;7392707;19;20451;-61
2022/10/03 01:00:25;;;;;;;0.30;0.28;;;;;;;10.53;100.00;100897.63;7390483;19;20019;-61
2022/10/03 01:03:17;;;;;;;2.95;1.30;;;;;;;11.83;100.00;100900.41;7393393;19;20339;-61
2022/10/03 01:05:47;;;;;;;0.25;0.25;;;;;;;11.91;100.00;100900.91;7390116;19;20027;-61
2022/10/03 01:08:55;;;;;;;1.20;0.95;;;;;;;12.39;100.00;100899.34;7389463;19;20350;-61
2022/10/03 01:11:34;;;;;;;0.30;0.30;;;;;;;11.90;100.00;100900.13;7389443;19;20011;-61
2022/10/03 01:14:19;;;;;;;0.30;0.30;;;;;;;11.81;100.00;100897.31;7388919;19;20458;-61
2022/10/03 01:16:57;;;;;;;1.75;0.60;;;;;;;11.87;100.00;100901.03;7392146;19;20038;-61
2022/10/03 01:19:57;;;;;;;0.93;0.93;;;;;;;11.36;100.00;100908.19;7389440;19;20014;-60
2022/10/03 01:23:05;;;;;;;1.30;0.85;;;;;;;11.08;100.00;100920.38;7387325;19;20679;-60
2022/10/03 01:25:49;;;;;;;0.43;0.43;;;;;;;11.62;100.00;100917.16;7392072;19;20011;-60
2022/10/03 01:32:22;;;;;;;2.83;1.20;;;;;;;11.71;100.00;100904.09;7390918;19;20038;-61
2022/10/03 01:35:07;;;;;;;1.58;0.95;;;;;;;11.81;100.00;100913.25;7392329;19;20074;-60
2022/10/03 01:37:44;;;;;;;1.55;0.70;;;;;;;11.34;100.00;100913.44;7400625;19;20010;-60
2022/10/03 01:40:29;;;;;;;0.40;0.40;;;;;;;11.19;100.00;100924.34;7396832;19;20003;-61
2022/10/03 01:43:22;;;;;;;2.40;0.77;;;;;;;11.61;100.00;100930.34;7396786;19;20018;-60
2022/10/03 01:45:54;;;;;;;2.72;1.10;;;;;;;11.65;100.00;100933.75;7395828;19;20010;-60
2022/10/03 01:48:30;;;;;;;0.30;0.30;;;;;;;11.59;100.00;100923.66;7396258;19;20019;-60
2022/10/03 01:51:49;;;;;;;0.63;0.63;;;;;;;11.60;100.00;100926.00;7395542;19;20015;-61
2022/10/03 01:54:29;;;;;;;0.20;0.20;;;;;;;11.83;100.00;100928.31;7391340;19;20014;-60
2022/10/03 01:57:17;;;;;;;10.00;1.35;;;;;;;11.95;100.00;100918.31;7398936;19;20050;-60
2022/10/03 02:00:16;;;;;;;0.50;0.50;;;;;;;11.91;100.00;100926.78;7396183;19;20101;-61
2022/10/03 02:03:01;;;;;;;0.38;0.30;;;;;;;11.65;100.00;100933.75;7398946;19;20010;-57
2022/10/03 02:05:35;;;;;;;9.77;1.77;;;;;;;11.69;100.00;100934.47;7395572;19;20010;-57
2022/10/03 02:08:20;;;;;;;0.52;0.52;;;;;;;11.53;100.00;100937.44;7400102;19;20024;-57
2022/10/03 02:11:01;;;;;;;0.10;0.10;;;;;;;11.99;100.00;100930.88;7398276;19;20010;-57
2022/10/03 02:13:40;;;;;;;2.35;0.95;;;;;;;12.17;100.00;100925.34;7398239;19;20527;-57
2022/10/03 02:16:13;;;;;;;0.22;0.22;;;;;;;11.78;100.00;100925.34;7400416;19;20019;-57
2022/10/03 02:18:45;;;;;;;0.90;0.90;;;;;;;11.99;100.00;100919.72;7400001;19;20014;-57
2022/10/03 02:21:22;;;;;;;0.90;0.88;;;;;;;11.90;100.00;100928.03;7398599;19;20392;-57
2022/10/03 02:24:14;;;;;;;0.43;0.43;;;;;;;11.66;100.00;100928.97;7398445;19;20014;-57
2022/10/03 02:27:06;;;;;;;2.58;0.40;;;;;;;11.02;100.00;100936.13;7396135;19;20341;-57
2022/10/03 02:29:47;;;;;;;;;;;;;;;10.89;100.00;100949.34;7395757;19;20007;-57
2022/10/03 02:32:46;;;;;;;0.70;0.57;;;;;;;11.42;100.00;100934.25;7397203;19;19915;-57
2022/10/03 02:35:25;;;;;;;8.57;0.80;;;;;;;11.41;100.00;100929.91;7390319;19;20031;-57
2022/10/03 02:38:28;;;;;;;0.52;0.52;;;;;;;11.66;100.00;100924.16;7398627;19;20021;-57
2022/10/03 02:41:15;;;;;;;2.47;0.95;;;;;;;11.90;100.00;100921.69;7393594;19;20424;-57
2022/10/03 02:44:25;;;;;;;2.15;0.52;;;;;;;12.12;100.00;100919.59;7391312;19;20471;-57
2022/10/03 02:47:29;;;;;;;0.82;0.82;;;;;;;12.07;100.00;100920.19;7396750;19;20458;-57
2022/10/03 02:50:25;;;;;;;0.50;0.50;;;;;;;11.96;100.00;100911.47;7393240;19;20014;-57
2022/10/03 02:53:08;;;;;;;3.25;0.57;;;;;;;11.67;100.00;100911.81;7393800;19;20014;-56
2022/10/03 02:55:46;;;;;;;1.10;1.02;;;;;;;11.86;100.00;100910.66;7392206;19;20022;-56
2022/10/03 02:58:37;;;;;;;0.30;0.30;;;;;;;11.42;100.00;100921.09;7394001;19;20014;-56
2022/10/03 03:01:38;;;;;;;0.50;0.50;;;;;;;11.86;100.00;100910.66;7395265;19;20014;-56
2022/10/03 03:04:55;;;;;;;0.40;0.40;;;;;;;11.68;100.00;100907.78;7387807;19;20247;-56
2022/10/03 03:07:31;;;;;;;6.25;1.17;;;;;;;12.09;100.00;100890.56;7397518;19;20031;-56
2022/10/03 03:10:28;;;;;;;0.95;0.77;;;;;;;12.40;100.00;100889.72;7392954;19;20014;-57
2022/10/03 03:13:34;;;;;;;0.82;0.82;;;;;;;11.79;100.00;100890.63;7393551;19;20036;-57
2022/10/03 03:16:42;;;;;;;0.32;0.32;;;;;;;11.90;100.00;100888.97;7391753;19;20044;-57
2022/10/03 03:19:39;;;;;;;0.15;0.15;;;;;;;11.25;100.00;100885.50;7391865;19;20036;-57
2022/10/03 03:22:28;;;;;;;0.55;0.55;;;;;;;11.80;100.00;100884.56;7391970;19;20017;-56
2022/10/03 03:25:09;;;;;;;0.43;0.43;;;;;;;11.85;100.00;100891.56;7395521;19;20007;-56
2022/10/03 03:28:18;;;;;;;0.30;0.30;;;;;;;11.77;100.00;100884.72;7396425;19;20006;-57
2022/10/03 03:31:12;;;;;;;0.38;0.38;;;;;;;10.26;100.00;100891.00;7390371;19;20014;-56
2022/10/03 03:34:05;;;;;;;7.47;0.70;;;;;;;9.81;100.00;100880.13;7389953;19;20007;-57
2022/10/03 03:36:53;;;;;;;0.55;0.52;;;;;;;11.52;100.00;100868.16;7394131;19;20015;-56
2022/10/03 03:39:29;;;;;;;0.40;0.40;;;;;;;11.73;100.00;100870.91;7390869;19;20034;-56
2022/10/03 03:42:33;;;;;;;1.10;1.10;;;;;;;11.89;100.00;100876.22;7391929;19;20365;-56
2022/10/03 03:45:32;;;;;;;0.68;0.43;;;;;;;12.15;100.00;100883.16;7391756;19;20010;-56
2022/10/03 03:48:20;;;;;;;0.38;0.38;;;;;;;12.42;100.00;100879.63;7390129;19;20083;-56
2022/10/03 03:51:00;;;;;;;6.15;1.70;;;;;;;12.18;100.00;100879.44;7391806;19;20011;-56
2022/10/03 03:53:49;;;;;;;2.33;1.00;;;;;;;12.70;100.00;100884.03;7391548;19;20018;-57
2022/10/03 03:56:34;;;;;;;4.03;1.17;;;;;;;12.59;100.00;100885.72;7392280;19;20014;-56
2022/10/03 03:59:12;;;;;;;0.38;0.38;;;;;;;12.90;100.00;100866.78;7391085;19;20488;-56
2022/10/03 04:01:44;;;;;;;0.73;0.63;;;;;;;10.97;100.00;100878.19;7394236;19;20455;-57
2022/10/03 04:04:17;;;;;;;0.40;0.40;;;;;;;10.52;100.00;100881.38;7390991;19;20048;-57
2022/10/03 04:06:53;;;;;;;1.27;1.05;;;;;;;11.16;100.00;100879.84;7392988;19;20010;-58
2022/10/03 04:09:29;;;;;;;0.68;0.68;;;;;;;11.34;100.00;100883.56;7391203;19;20026;-57
2022/10/03 04:12:14;;;;;;;0.40;0.40;;;;;;;11.20;100.00;100886.84;7392070;19;20348;-57
2022/10/03 04:14:46;;;;;;;3.45;0.73;;;;;;;9.43;100.00;100891.19;7390178;19;20014;-57
2022/10/03 04:20:15;;;;;;;0.50;0.50;;;;;;;9.18;100.00;100886.34;7390501;19;20007;-57
2022/10/03 04:23:06;;;;;;;1.55;0.73;;;;;;;10.57;100.00;100886.34;7391513;19;20351;-57
2022/10/03 04:26:03;;;;;;;0.88;0.60;;;;;;;11.23;100.00;100885.97;7394734;19;20038;-57
2022/10/03 04:29:09;;;;;;;0.40;0.40;;;;;;;11.06;100.00;100875.47;7389865;19;20048;-57
2022/10/03 04:31:48;;;;;;;0.57;0.57;;;;;;;11.07;100.00;100874.22;7390997;19;20022;-57
2022/10/03 04:34:27;;;;;;;1.27;0.55;;;;;;;10.59;100.00;100884.66;7390778;19;20003;-59
2022/10/03 04:37:24;;;;;;;0.47;0.47;;;;;;;11.27;100.00;100869.09;7393120;19;20015;-57
2022/10/03 04:40:22;;;;;;;0.60;0.60;;;;;;;11.14;100.00;100871.97;7390064;19;20841;-58
2022/10/03 04:43:18;;;;;;;1.33;1.23;;;;;;;10.21;100.00;100872.88;7388479;19;20561;-57
2022/10/03 04:45:44;;;;;;;8.40;0.82;;;;;;;10.72;100.00;100872.72;7389770;19;20016;-57
2022/10/03 04:48:17;;;;;;;3.30;0.95;;;;;;;11.00;100.00;100882.84;7390696;19;20007;-58
2022/10/03 04:50:49;;;;;;;0.73;0.73;;;;;;;11.30;100.00;100885.66;7391030;19;20018;-57
2022/10/03 04:53:39;;;;;;;0.50;0.50;;;;;;;10.60;100.00;100877.88;7392199;19;20010;-57
2022/10/03 04:56:24;;;;;;;1.23;0.68;;;;;;;11.37;100.00;100873.47;7392496;19;20010;-57
2022/10/03 04:59:03;;;;;;;1.25;0.70;;;;;;;11.43;100.00;100874.47;7392857;19;20015;-61
2022/10/03 05:01:52;;;;;;;0.10;0.10;;;;;;;11.43;100.00;100866.84;7395396;19;20025;-61
2022/10/03 05:04:29;;;;;;;1.10;1.10;;;;;;;11.91;100.00;100867.41;7393506;19;20039;-61
2022/10/03 05:07:40;;;;;;;3.65;0.60;;;;;;;11.92;100.00;100861.38;7392077;19;20014;-57
2022/10/03 05:10:34;;;;;;;11.07;0.70;;;;;;;11.89;100.00;100861.53;7390325;19;20007;-58
2022/10/03 05:13:11;;;;;;;4.55;1.05;;;;;;;12.14;100.00;100864.84;7393431;19;20025;-57
2022/10/03 05:16:01;;;;;;;2.22;1.23;;;;;;;11.68;100.00;100860.34;7392203;19;20095;-57
2022/10/03 05:18:44;;;;;;;5.88;0.80;;;;;;;11.26;100.00;100867.53;7392985;19;20015;-57
2022/10/03 05:21:32;;;;;;;0.85;0.85;;;;;;;11.39;100.00;100865.44;7393586;19;20021;-56
2022/10/03 05:24:06;;;;;;;0.40;0.40;;;;;;;11.56;100.00;100863.22;7394727;19;20041;-56
2022/10/03 05:27:00;;;;;;;0.30;0.30;;;;;;;11.19;100.00;100863.00;7396367;19;20027;-56
2022/10/03 05:29:51;;;;;;;0.40;0.40;;;;;;;11.65;100.00;100857.66;7393052;19;20010;-57
2022/10/03 05:32:32;;;;;;;1.00;0.68;;;;;;;11.67;100.00;100858.81;7391787;19;20014;-57
2022/10/03 05:35:07;;;;;;;3.30;0.70;;;;;;;11.78;100.00;100859.13;7387714;19;20002;-57
2022/10/03 05:37:36;;;;;;;1.05;0.75;;;;;;;11.68;100.00;100853.97;7388965;19;20007;-57
2022/10/03 05:40:06;;;;;;;5.32;0.90;;;;;;;11.49;100.00;100841.94;7388966;19;20006;-57
2022/10/03 05:42:54;;;;;;;0.85;0.80;;;;;;;11.44;100.00;100845.31;7388247;19;20007;-56
2022/10/03 05:45:59;;;;;;;1.95;0.82;;;;;;;11.38;100.00;100841.56;7389324;19;20404;-56
2022/10/03 05:49:07;;;;;;;7.75;2.55;;;;;;;11.20;100.00;100847.03;7388659;19;20014;-56
2022/10/03 05:51:45;;;;;;;1.90;0.75;;;;;;;11.19;100.00;100832.34;7384965;19;20098;-56
2022/10/03 05:54:44;;;;;;;0.50;0.50;;;;;;;11.26;100.00;100839.66;7384687;19;20015;-56
2022/10/03 05:57:32;;;;;;;0.30;0.30;;;;;;;11.17;100.00;100836.81;7388283;19;20050;-56
2022/10/03 06:00:07;;;;;;;0.95;0.57;;;;;;;11.35;100.00;100831.31;7388889;19;20385;-56
2022/10/03 06:02:57;;;;;;;0.65;0.65;;;;;;;11.40;100.00;100844.69;7391851;19;20010;-56
2022/10/03 06:05:31;;;;;;;1.05;0.90;;;;;;;11.42;100.00;100837.41;7387999;19;20019;-56
2022/10/03 06:08:18;;;;;;;1.40;0.75;;;;;;;11.41;100.00;100843.47;7387935;19;20018;-56
2022/10/03 06:11:30;;;;;;;0.20;0.20;;;;;;;11.35;100.00;100836.91;7386508;19;20652;-56
2022/10/03 06:14:13;;;;;;;2.63;1.17;;;;;;;11.33;100.00;100837.38;7383137;19;20018;-56
2022/10/03 06:17:03;;;;;;;4.85;1.45;;;;;;;10.98;100.00;100835.91;7389051;19;20471;-57
2022/10/03 06:19:45;;;;;;;1.58;0.60;;;;;;;11.34;100.00;100829.78;7392144;19;20006;-57
2022/10/03 06:22:44;;;;;;;1.45;0.75;;;;;;;11.73;100.00;100845.81;7393988;19;20018;-57
2022/10/03 06:25:25;;;;;;;0.85;0.50;;;;;;;11.81;100.00;100835.91;7393473;19;20027;-57
2022/10/03 06:28:17;;;;;;;1.17;0.80;;;;;;;11.59;100.00;100843.53;7397721;19;20015;-57
2022/10/03 06:31:01;;;;;;;0.75;0.75;;;;;;;11.53;100.00;100836.22;7394797;19;20356;-57
2022/10/03 06:34:10;;;;;;;1.00;1.00;;;;;;;11.50;100.00;100831.56;7398911;19;20467;-56
2022/10/03 06:36:57;;;;;;;0.40;0.35;;;;;;;11.74;100.00;100825.00;7397049;19;20011;-57
2022/10/03 06:40:00;;;;;;;0.77;0.77;;;;;;;11.74;100.00;100825.00;7394971;19;20066;-57
2022/10/03 06:42:54;;;;;;;1.17;1.08;;;;;;;11.57;100.00;100832.06;7395196;19;20121;-57
2022/10/03 06:45:35;;;;;;;1.60;1.00;;;;;;;11.73;100.00;100831.84;7394410;19;20463;-56
2022/10/03 06:48:04;;;;;;;;;;;;;;;11.83;100.00;100833.41;7395678;19;20674;-56
2022/10/03 06:50:31;;;;;;;4.57;0.95;;;;;;;11.82;100.00;100826.31;7393775;19;19911;-57
2022/10/03 06:53:28;;;;;;;0.88;0.88;;;;;;;11.85;100.00;100824.59;7393645;19;20340;-57
2022/10/03 06:56:06;;;;;;;0.60;0.50;;;;;;;11.80;100.00;100823.16;7393093;19;20018;-57
2022/10/03 06:58:42;;;;;;;0.75;0.75;;;;;;;11.89;100.00;100828.03;7392530;19;20601;-57
2022/10/03 07:01:11;;;;;;;0.43;0.43;;;;;;;11.90;100.00;100826.78;7394481;19;20017;-56
2022/10/03 07:04:14;;;;;;;0.68;0.68;;;;;;;12.24;100.00;100825.75;7393351;19;20019;-56
2022/10/03 07:07:04;;;;;;;0.95;0.90;;;;;;;12.35;100.00;100835.25;7397115;19;20014;-56
2022/10/03 07:09:39;;;;;;;0.65;0.43;;;;;;;12.48;100.00;100826.72;7393783;19;20313;-57
2022/10/03 07:12:46;;;;;;;0.50;0.50;;;;;;;12.89;100.00;100828.88;7393699;19;20011;-57
2022/10/03 07:15:31;;;;;;;2.75;1.02;;;;;;;13.05;100.00;100828.56;7392257;19;20478;-56
2022/10/03 07:18:25;;;;;;;1.23;0.68;;;;;;;13.12;100.00;100827.47;7397782;19;20044;-57
2022/10/03 07:21:03;;;;;;;0.98;0.70;;;;;;;12.94;100.00;100831.06;7393053;19;20010;-57
2022/10/03 07:23:42;;;;;;;0.57;0.47;;;;;;;12.69;100.00;100820.97;7394406;19;20010;-57
2022/10/03 07:26:20;;;;;;;0.65;0.40;;;;;;;12.80;100.00;100831.66;7398921;19;20013;-57
2022/10/03 07:29:19;;;;;;;7.53;1.13;;;;;;;13.02;100.00;100826.69;7393930;19;20040;-56
2022/10/03 07:31:57;;;;;;;10.35;1.67;;;;;;;12.97;100.00;100827.31;7392544;19;20014;-57
2022/10/03 07:35:01;;;;;;;7.38;3.03;;;;;;;13.06;100.00;100832.91;7391233;19;20038;-56
2022/10/03 07:40:34;;;;;;;1.33;1.02;;;;;;;13.30;100.00;100847.78;7393187;19;20011;-57
2022/10/03 07:43:30;;;;;;;14.80;3.35;;;;;;;13.45;100.00;100837.47;7392081;19;20117;-56
2022/10/03 07:46:17;;;;;;;10.88;2.40;;;;;;;13.68;100.00;100834.00;7390957;19;20483;-56
2022/10/03 07:49:09;;;;;;;1.98;1.55;;;;;;;13.76;100.00;100842.03;7392888;19;20535;-57
2022/10/03 07:52:00;;;;;;;4.95;1.45;;;;;;;13.62;100.00;100835.84;7389716;19;20018;-56
2022/10/03 07:54:38;;;;;;;17.20;1.67;;;;;;;13.80;100.00;100835.00;7391599;19;20019;-56
2022/10/03 07:57:30;;;;;;;1.17;0.73;;;;;;;13.98;100.00;100834.91;7394038;19;20039;-57
2022/10/03 08:00:18;;;;;;;1.30;1.00;;;;;;;14.21;100.00;100820.13;7392002;19;20014;-56
2022/10/03 08:03:23;;;;;;;1.48;0.82;;;;;;;14.59;100.00;100822.22;7392999;19;20018;-56
2022/10/03 08:06:14;;;;;;;5.22;0.95;;;;;;;14.71;100.00;100826.00;7391910;19;20010;-56
2022/10/03 08:08:59;;;;;;;;;;;;;;;14.75;100.00;100826.63;7391745;19;20025;-57
2022/10/03 08:12:02;;;;;;;3.85;1.58;;;;;;;15.08;100.00;100825.19;7391769;19;19929;-56
2022/10/03 08:14:57;;;;;;;6.32;0.98;;;;;;;15.26;100.00;100821.44;7391603;19;20010;-56
2022/10/03 08:17:54;;;;;;;5.53;1.30;;;;;;;15.34;100.00;100824.59;7394597;19;20021;-55
2022/10/03 08:20:33;;;;;;;5.38;1.95;;;;;;;15.42;100.00;100822.97;7391273;19;20376;-56
2022/10/03 08:23:11;;;;;;;3.83;1.48;;;;;;;15.45;100.00;100819.22;7390500;19;20010;-55
2022/10/03 08:25:48;;;;;;;3.03;2.15;;;;;;;15.47;100.00;100816.69;7395235;19;20017;-56
2022/10/03 08:28:25;;;;;;;6.70;2.38;;;;;;;15.63;100.00;100816.97;7390030;19;20015;-56
2022/10/03 08:31:24;;;;;;;12.82;2.33;;;;;;;15.97;100.00;100821.03;7389657;19;20601;-56
2022/10/03 08:34:27;;;;;;;5.07;2.03;;;;;;;16.07;100.00;100813.28;7389891;19;20075;-56
2022/10/03 08:37:12;;;;;;;12.30;1.85;;;;;;;15.66;100.00;100818.00;7393528;19;20329;-56
2022/10/03 08:40:16;;;;;;;5.68;1.80;;;;;;;15.73;100.00;100817.63;7390795;19;20158;-55
2022/10/03 08:42:48;;;;;;;5.47;2.42;;;;;;;15.90;100.00;100822.22;7389025;19;20538;-56
2022/10/03 08:45:51;;;;;;;25.50;4.53;;;;;;;15.85;100.00;100834.13;7389729;19;20010;-56
2022/10/03 08:48:39;;;;;;;3.15;1.83;;;;;;;16.44;100.00;100826.25;7390574;19;20015;-56
2022/10/03 08:51:25;;;;;;;8.02;2.08;;;;;;;17.45;100.00;100817.63;7390309;19;20018;-56
2022/10/03 08:53:57;;;;;;;11.38;2.67;;;;;;;17.47;100.00;100820.72;7389692;19;20197;-56
2022/10/03 08:56:39;;;;;;;6.50;1.80;;;;;;;17.94;100.00;100820.06;7392435;19;20011;-56
2022/10/03 08:59:44;;;;;;;6.15;1.63;;;;;;;18.37;100.00;100803.84;7390457;19;20070;-56
2022/10/03 09:02:34;;;;;;;3.53;1.73;;;;;;;18.31;100.00;100814.34;7393501;19;20021;-56
2022/10/03 09:05:25;;;;;;;1.08;0.98;;;;;;;18.88;100.00;100811.25;7390516;19;20019;-56
2022/10/03 09:08:22;;;;;;;0.90;0.63;;;;;;;18.76;100.00;100810.44;7395174;19;20015;-56
2022/10/03 09:11:07;;;;;;;3.50;1.02;;;;;;;19.29;100.00;100806.69;7390209;19;20495;-56
2022/10/03 09:14:07;;;;;;;0.60;0.50;;;;;;;19.47;100.00;100806.19;7390280;19;20007;-56
2022/10/03 09:16:45;;;;;;;2.97;0.75;;;;;;;19.29;100.00;100803.84;7393023;19;20018;-56
2022/10/03 09:19:51;;;;;;;0.75;0.75;;;;;;;19.60;100.00;100809.25;7389549;19;20011;-57
2022/10/03 09:22:50;;;;;;;0.63;0.43;;;;;;;19.80;100.00;100790.47;7388767;19;20018;-57
2022/10/03 09:25:57;;;;;;;0.50;0.30;;;;;;;19.87;100.00;100798.44;7392445;19;20045;-56
2022/10/03 09:29:11;;;;;;;1.23;0.32;;;;;;;20.28;100.00;100796.53;7387205;19;20011;-56
2022/10/03 09:31:49;;;;;;;1.98;0.40;;;;;;;20.23;100.00;100797.31;7387052;19;20018;-56
2022/10/03 09:34:44;;;;;;;3.58;0.35;;;;;;;20.42;100.00;100789.03;7389393;19;20013;-56
2022/10/03 09:37:11;;;;;;;11.68;0.90;;;;;;;20.05;100.00;100787.34;7391469;19;20017;-56
2022/10/03 09:40:15;;;;;;;1.17;0.95;;;;;;;20.02;100.00;100787.59;7387743;19;20014;-57
2022/10/03 09:43:05;;;;;;;0.35;0.30;;;;;;;20.05;100.00;100786.56;7389127;19;20010;-57
2022/10/03 09:45:55;;;;;;;1.60;0.88;;;;;;;20.19;100.00;100788.31;7388626;19;20090;-61
2022/10/03 09:48:49;;;;;;;2.08;1.45;;;;;;;20.44;100.00;100778.72;7388821;19;20010;-60
2022/10/03 09:51:30;;;;;;;1.63;0.90;;;;;;;19.08;100.00;100776.38;7388453;19;20442;-61
2022/10/03 09:54:09;;;;;;;0.10;0.10;;;;;;;18.76;100.00;100787.09;7392315;19;20006;-61
2022/10/03 09:56:43;;;;;;;0.47;0.40;;;;;;;18.72;100.00;100773.22;7397806;19;20028;-61
2022/10/03 09:59:46;;;;;;;3.72;0.38;;;;;;;19.23;100.00;100757.88;7392662;19;20015;-61
2022/10/03 10:02:32;;;;;;;0.20;0.17;;;;;;;20.31;100.00;100751.00;7396674;19;20017;-61
2022/10/03 10:05:24;;;;;;;0.30;0.30;;;;;;;20.81;100.00;100756.38;7396350;19;20335;-60
2022/10/03 10:08:28;;;;;;;2.72;0.57;;;;;;;20.11;100.00;100761.84;7400372;19;20023;-60
2022/10/03 10:11:07;;;;;;;0.75;0.30;;;;;;;20.22;100.00;100751.31;7395779;19;20766;-60
2022/10/03 10:14:12;;;;;;;0.88;0.50;;;;;;;20.44;100.00;100758.94;7395923;19;20015;-60
2022/10/03 10:16:44;;;;;;;0.82;0.20;;;;;;;20.90;100.00;100753.22;7396945;19;20014;-61
2022/10/03 10:19:35;;;;;;;0.30;0.10;;;;;;;21.24;100.00;100750.16;7395905;19;20018;-61
2022/10/03 10:22:38;;;;;;;0.63;0.22;;;;;;;21.49;100.00;100751.72;7395298;19;20010;-61
2022/10/03 10:25:16;;;;;;;11.90;0.22;;;;;;;21.53;100.00;100746.53;7397647;19;20074;-61
2022/10/03 10:28:01;;;;;;;9.98;0.45;;;;;;;21.49;100.00;100743.22;7398765;19;20017;-61
2022/10/03 10:30:47;;;;;;;0.10;0.10;;;;;;;21.63;100.00;100745.69;7395664;19;20468;-61
2022/10/03 10:33:42;;;;;;;3.50;0.77;;;;;;;21.36;100.00;100748.75;7396967;19;20342;-61
2022/10/03 10:36:23;;;;;;;1.08;0.20;;;;;;;21.34;100.00;100734.34;7392838;19;20020;-61
2022/10/03 10:39:15;;;;;;;6.28;0.65;;;;;;;21.38;100.00;100740.50;7393738;19;20024;-61
2022/10/03 10:42:00;;;;;;;9.50;0.52;;;;;;;21.26;100.00;100739.84;7392153;19;20047;-61
2022/10/03 10:44:52;;;;;;;0.63;0.10;;;;;;;21.39;100.00;100736.38;7393034;19;20026;-61
2022/10/03 10:47:26;;;;;;;2.75;0.70;;;;;;;21.44;100.00;100733.47;7398213;19;20006;-61
2022/10/03 10:50:25;;;;;;;0.40;0.40;;;;;;;20.82;100.00;100735.25;7393570;19;20011;-60
2022/10/03 10:53:22;;;;;;;3.45;0.40;;;;;;;20.77;100.00;100724.00;7394467;19;20047;-61
2022/10/03 10:56:07;;;;;;;1.25;0.28;;;;;;;20.42;100.00;100725.47;7390519;19;20019;-61
2022/10/03 10:58:58;;;;;;;4.15;0.70;;;;;;;21.10;100.00;100727.34;7394256;19;20011;-61
2022/10/03 11:01:43;;;;;;;10.75;0.50;;;;;;;21.08;100.00;100712.19;7394551;19;21081;-61
2022/10/03 11:04:40;;;;;;;0.88;0.32;;;;;;;20.64;100.00;100716.06;7394184;19;20010;-61
2022/10/03 11:07:40;;;;;;;1.38;0.60;;;;;;;20.58;100.00;100720.22;7395578;19;20007;-61
2022/10/03 11:10:30;;;;;;;2.10;0.25;;;;;;;16.15;100.00;100718.84;7392999;19;20015;-61
2022/10/03 11:13:29;;;;;;;1.27;0.43;;;;;;;14.75;100.00;100712.41;7393190;19;20019;-62
2022/10/03 11:16:01;;;;;;;0.17;0.17;;;;;;;15.13;100.00;100703.09;7391694;19;20021;-61
2022/10/03 11:18:43;;;;;;;0.95;0.30;;;;;;;16.00;100.00;100699.25;7393149;19;20007;-61
2022/10/03 11:21:09;;;;;;;0.70;0.13;;;;;;;16.43;100.00;100698.22;7393060;19;20011;-61
2022/10/03 11:24:04;;;;;;;2.15;0.82;;;;;;;16.44;100.00;100688.50;7393962;19;20014;-61
2022/10/03 11:27:07;;;;;;;5.68;1.20;;;;;;;14.86;100.00;100690.16;7393959;19;20006;-61
2022/10/03 11:29:52;;;;;;;2.75;1.08;;;;;;;17.65;100.00;100682.31;7392510;19;20082;-61
2022/10/03 11:32:45;;;;;;;5.63;0.68;;;;;;;17.82;100.00;100677.53;7395541;19;20010;-62
2022/10/03 11:35:17;;;;;;;2.90;0.93;;;;;;;16.20;100.00;100676.72;7392463;19;20049;-61
2022/10/03 11:37:51;;;;;;;7.22;0.68;;;;;;;17.92;100.00;100669.63;7397456;19;20014;-61
2022/10/03 11:40:27;;;;;;;2.38;1.27;;;;;;;19.03;100.00;100656.50;7393064;19;20031;-61
2022/10/03 11:43:05;;;;;;;5.68;1.45;;;;;;;17.89;100.00;100659.38;7392778;19;20352;-61
2022/10/03 11:45:41;;;;;;;6.20;0.57;;;;;;;19.38;100.00;100656.72;7392004;19;20007;-61
2022/10/03 11:48:25;;;;;;;0.75;0.35;;;;;;;17.38;100.00;100657.56;7392168;19;20014;-61
2022/10/03 11:50:56;;;;;;;2.47;0.30;;;;;;;16.20;100.00;100648.63;7392106;19;20518;-61
2022/10/03 11:53:48;;;;;;;1.00;0.17;;;;;;;16.03;100.00;100647.69;7392030;19;20014;-61
2022/10/03 11:56:22;;;;;;;11.90;1.63;;;;;;;16.64;100.00;100646.28;7390545;19;20030;-61
2022/10/03 11:59:14;;;;;;;1.45;0.47;;;;;;;18.98;100.00;100626.22;7391419;19;20010;-61
2022/10/03 12:02:01;;;;;;;1.17;0.55;;;;;;;20.12;100.00;100627.66;7391732;19;20022;-60
2022/10/03 12:04:38;;;;;;;2.03;0.43;;;;;;;19.96;100.00;100622.84;7391156;19;20011;-61
2022/10/03 12:10:37;;;;;;;1.73;0.32;;;;;;;16.66;100.00;100620.47;7391629;19;20033;-61
2022/10/03 12:13:15;;;;;;;2.00;0.55;;;;;;;16.52;100.00;100619.31;7391237;19;20025;-61
2022/10/03 12:15:47;;;;;;;1.70;0.55;;;;;;;19.65;100.00;100607.84;7390846;19;20374;-61
2022/10/03 12:18:47;;;;;;;0.73;0.28;;;;;;;20.23;100.00;100602.91;7390807;19;20328;-61
2022/10/03 12:21:36;;;;;;;0.93;0.70;;;;;;;20.59;100.00;100602.91;7391169;19;20014;-61
2022/10/03 12:24:10;;;;;;;2.72;0.43;;;;;;;19.47;100.00;100605.59;7391416;19;20017;-61
2022/10/03 12:26:51;;;;;;;1.85;0.93;;;;;;;19.75;100.00;100604.72;7392927;19;20100;-61
2022/10/03 12:29:20;;;;;;;0.82;0.20;;;;;;;19.76;100.00;100603.41;7391357;19;20006;-61
2022/10/03 12:32:00;;;;;;;0.95;0.40;;;;;;;20.52;100.00;100592.16;7393065;19;20014;-61
2022/10/03 12:34:36;;;;;;;4.22;0.93;;;;;;;20.46;100.00;100583.72;7390678;19;20436;-61
2022/10/03 12:37:27;;;;;;;1.13;0.35;;;;;;;21.50;100.00;100584.00;7393252;19;20018;-61
2022/10/03 12:40:09;;;;;;;;;;;;;;;22.24;100.00;100577.56;7391390;19;20011;-61
2022/10/03 12:43:08;;;;;;;1.38;0.38;;;;;;;22.27;100.00;100582.16;7390279;19;19995;-61
2022/10/03 12:45:49;;;;;;;1.65;0.65;;;;;;;21.69;100.00;100575.50;7390930;19;20039;-61
2022/10/03 12:48:21;;;;;;;5.10;0.68;;;;;;;22.64;100.00;100569.97;7390913;19;20014;-61
2022/10/03 12:50:53;;;;;;;2.33;0.60;;;;;;;23.05;100.00;100566.66;7390170;19;20014;-61
2022/10/03 12:53:26;;;;;;;0.95;0.45;;;;;;;23.31;100.00;100552.44;7390526;19;20010;-61
2022/10/03 12:56:18;;;;;;;2.92;0.65;;;;;;;23.52;100.00;100550.47;7387240;19;20491;-61
2022/10/03 12:59:10;;;;;;;0.40;0.25;;;;;;;23.37;100.00;100555.22;7390105;19;20014;-61
2022/10/03 13:01:55;;;;;;;2.47;0.17;;;;;;;23.20;100.00;100541.28;7390524;19;20039;-62